createdAt,value
2023-12-29T00:03:21.704Z,95816.78
2023-12-29T00:08:37.614Z,95805.72
2023-12-29T00:13:41.702Z,95806.28
2023-12-29T00:18:45.403Z,95796.81
2023-12-29T00:23:48.931Z,95792.47
2023-12-29T00:28:51.844Z,95786.03
2023-12-29T00:33:56.433Z,95789.72
2023-12-29T00:39:04.154Z,95775.44
2023-12-29T00:44:07.020Z,95777.81
2023-12-29T00:49:12.340Z,95770.28
2023-12-29T00:54:17.553Z,95767.81
2023-12-29T00:59:23.198Z,95769.16
2023-12-29T01:04:28.221Z,95771.22
2023-12-29T01:09:36.138Z,95768.34
2023-12-29T01:14:41.253Z,95775.63
2023-12-29T01:19:44.471Z,95780.53
2023-12-29T01:24:48.545Z,95781.03
2023-12-29T01:29:51.572Z,95785.75
2023-12-29T01:34:57.816Z,95784.25
2023-12-29T01:40:03.395Z,95782.56
2023-12-29T01:45:07.867Z,95773.50
2023-12-29T01:50:20.633Z,95771.00
2023-12-29T01:55:26.082Z,95765.94
2023-12-29T02:00:35.082Z,95761.31
2023-12-29T02:05:37.813Z,95769.13
2023-12-29T02:10:42.480Z,95761.47
2023-12-29T02:15:45.944Z,95746.88
2023-12-29T02:20:49.455Z,95748.44
2023-12-29T02:25:52.510Z,95752.81
2023-12-29T02:30:56.744Z,95755.44
2023-12-29T02:36:00.705Z,95750.97
2023-12-29T02:41:06.802Z,95744.75
2023-12-29T02:46:09.922Z,95736.09
2023-12-29T02:51:13.149Z,95725.28
2023-12-29T02:56:16.248Z,95714.91
2023-12-29T03:01:21.096Z,95716.56
2023-12-29T03:06:24.508Z,95704.16
2023-12-29T03:11:27.495Z,95688.44
2023-12-29T03:16:34.941Z,95690.81
2023-12-29T03:21:40.804Z,95691.88
2023-12-29T03:26:44.530Z,95701.50
2023-12-29T03:31:49.069Z,95701.41
2023-12-29T03:36:53.476Z,95702.34
2023-12-29T03:41:58.883Z,95702.66
2023-12-29T03:47:03.715Z,95691.19
2023-12-29T03:52:09.225Z,95688.59
2023-12-29T03:57:15.548Z,95691.44
2023-12-29T04:02:25.510Z,95686.81
2023-12-29T04:07:28.106Z,95685.69
2023-12-29T04:12:37.178Z,95668.78
2023-12-29T04:17:42.262Z,95668.09
2023-12-29T04:22:46.288Z,95666.31
2023-12-29T04:27:49.419Z,95670.63
2023-12-29T04:32:53.805Z,95668.28
2023-12-29T04:37:57.102Z,95659.19
2023-12-29T04:43:00.837Z,95666.94
2023-12-29T04:48:04.762Z,95659.75
2023-12-29T04:53:10.826Z,95662.47
2023-12-29T04:58:13.702Z,95664.34
2023-12-29T05:03:22.736Z,95662.22
2023-12-29T05:08:27.167Z,95667.03
2023-12-29T05:13:30.712Z,95656.38
2023-12-29T05:18:34.058Z,95656.13
2023-12-29T05:23:44.236Z,95649.16
2023-12-29T05:28:50.829Z,95648.09
2023-12-29T05:33:53.694Z,95669.56
2023-12-29T05:38:56.696Z,95666.91
2023-12-29T05:44:02.826Z,95668.53
2023-12-29T05:49:11.981Z,95679.25
2023-12-29T05:54:16.431Z,95671.97
2023-12-29T05:59:25.251Z,95667.44
2023-12-29T06:04:28.147Z,95679.25
2023-12-29T06:09:30.844Z,95682.19
2023-12-29T06:14:35.067Z,95679.19
2023-12-29T06:19:38.910Z,95676.28
2023-12-29T06:24:45.788Z,95697.19
2023-12-29T06:29:49.131Z,95695.53
2023-12-29T06:34:57.340Z,95690.97
2023-12-29T06:40:00.306Z,95686.16
2023-12-29T06:45:09.589Z,95689.31
2023-12-29T06:50:14.055Z,95687.44
2023-12-29T06:55:19.590Z,95690.97
2023-12-29T07:00:27.515Z,95693.13
2023-12-29T07:05:47.305Z,95695.28
2023-12-29T07:10:52.006Z,95693.63
2023-12-29T07:15:55.299Z,95691.53
2023-12-29T07:20:58.500Z,95685.91
2023-12-29T07:26:04.774Z,95688.09
2023-12-29T07:31:14.671Z,95694.28
2023-12-29T07:36:19.763Z,95695.34
2023-12-29T07:41:24.922Z,95695.88
2023-12-29T07:46:28.756Z,95713.56
2023-12-29T07:51:32.775Z,95702.84
2023-12-29T07:56:38.004Z,95705.53
2023-12-29T08:01:51.102Z,95703.66
2023-12-29T08:06:55.223Z,95733.91
2023-12-29T08:12:04.764Z,95726.97
2023-12-29T08:17:10.304Z,95725.63
2023-12-29T08:22:22.436Z,95726.44
2023-12-29T08:27:31.306Z,95734.72
2023-12-29T08:32:36.156Z,95744.13
2023-12-29T08:37:38.898Z,95737.41
2023-12-29T08:42:44.066Z,95739.03
2023-12-29T08:47:46.827Z,95738.50
2023-12-29T08:52:55.131Z,95736.09
2023-12-29T08:58:00.899Z,95732.84
2023-12-29T09:03:08.791Z,95737.72
2023-12-29T09:08:14.745Z,95735.88
2023-12-29T09:13:20.160Z,95738.31
2023-12-29T09:18:24.737Z,95748.28
2023-12-29T09:23:27.533Z,95748.88
2023-12-29T09:28:31.586Z,95752.91
2023-12-29T09:33:39.415Z,95741.63
2023-12-29T09:38:42.863Z,95744.88
2023-12-29T09:43:49.584Z,95740.03
2023-12-29T09:48:53.813Z,95733.56
2023-12-29T09:53:59.936Z,95737.06
2023-12-29T09:59:05.078Z,95733.06
2023-12-29T10:04:07.884Z,95713.97
2023-12-29T10:09:11.987Z,95722.28
2023-12-29T10:14:17.569Z,95713.19
2023-12-29T10:19:22.587Z,95710.50
2023-12-29T10:24:34.431Z,95693.88
2023-12-29T10:29:39.202Z,95685.00
2023-12-29T10:34:48.508Z,95679.38
2023-12-29T10:39:51.620Z,95664.34
2023-12-29T10:44:54.410Z,95661.13
2023-12-29T10:49:58.245Z,95666.72
2023-12-29T10:55:01.259Z,95663.75
2023-12-29T11:00:04.842Z,95651.94
2023-12-29T11:05:08.839Z,95644.09
2023-12-29T11:10:12.074Z,95637.94
2023-12-29T11:15:17.747Z,95641.41
2023-12-29T11:20:21.391Z,95650.28
2023-12-29T11:25:26.934Z,95639.78
2023-12-29T11:30:30.001Z,95641.09
2023-12-29T11:35:36.173Z,95633.00
2023-12-29T11:40:46.282Z,95638.34
2023-12-29T11:45:55.334Z,95638.88
2023-12-29T11:50:59.349Z,95614.66
2023-12-29T11:56:02.213Z,95621.34
2023-12-29T12:01:05.431Z,95619.75
2023-12-29T12:06:11.321Z,95614.84
2023-12-29T12:11:14.259Z,95618.78
2023-12-29T12:16:16.997Z,95609.06
2023-12-29T12:21:26.965Z,95601.19
2023-12-29T12:26:34.200Z,95598.66
2023-12-29T12:31:38.516Z,95597.03
2023-12-29T12:36:46.569Z,95591.72
2023-12-29T12:41:50.594Z,95598.38
2023-12-29T12:46:56.802Z,95601.34
2023-12-29T12:52:00.690Z,95589.19
2023-12-29T12:57:03.305Z,95596.94
2023-12-29T13:02:07.107Z,95602.31
2023-12-29T13:07:11.160Z,95602.44
2023-12-29T13:12:14.785Z,95609.09
2023-12-29T13:17:19.305Z,95614.31
2023-12-29T13:22:23.239Z,95601.50
2023-12-29T13:27:30.603Z,95606.63
2023-12-29T13:32:41.346Z,95605.13
2023-12-29T13:43:15.433Z,95592.56
2023-12-29T13:48:19.369Z,95598.50
2023-12-29T13:53:23.895Z,95587.47
2023-12-29T13:58:38.402Z,95591.84
2023-12-29T14:03:41.787Z,95591.88
2023-12-29T14:08:45.014Z,95605.63
2023-12-29T14:13:49.310Z,95602.44
2023-12-29T14:24:00.792Z,95608.88
2023-12-29T14:29:04.338Z,95621.81
2023-12-29T14:34:23.792Z,95609.47
2023-12-29T14:39:27.698Z,95608.97
2023-12-29T14:44:33.980Z,95608.19
2023-12-29T14:49:41.664Z,95615.19
2023-12-29T14:54:46.473Z,95610.13
2023-12-29T14:59:50.974Z,95609.84
2023-12-29T15:04:56.668Z,95613.38
2023-12-29T15:09:59.852Z,95610.16
2023-12-29T15:15:04.528Z,95604.28
2023-12-29T15:20:16.840Z,95608.56
2023-12-29T15:25:22.705Z,95610.19
2023-12-29T15:30:27.309Z,95612.56
2023-12-29T15:35:30.283Z,95610.16
2023-12-29T15:40:38.999Z,95621.97
2023-12-29T15:45:42.035Z,95621.97
2023-12-29T15:50:45.039Z,95610.69
2023-12-29T15:55:49.905Z,95609.34
2023-12-29T16:00:56.270Z,95611.47
2023-12-29T16:06:02.165Z,95606.38
2023-12-29T16:11:07.644Z,95598.88
2023-12-29T16:16:13.521Z,95609.88
2023-12-29T16:21:16.427Z,95613.34
2023-12-29T16:26:31.069Z,95616.00
2023-12-29T16:31:39.549Z,95619.22
2023-12-29T16:36:46.404Z,95614.91
2023-12-29T16:41:50.633Z,95613.00
2023-12-29T16:46:55.091Z,95599.09
2023-12-29T16:52:01.283Z,95600.66
2023-12-29T16:57:07.433Z,95590.19
2023-12-29T17:02:17.255Z,95593.91
2023-12-29T17:07:20.357Z,95581.00
2023-12-29T17:12:26.417Z,95575.91
2023-12-29T17:17:30.619Z,95573.75
2023-12-29T17:22:36.025Z,95572.41
2023-12-29T17:27:42.629Z,95565.97
2023-12-29T17:32:49.056Z,95574.78
2023-12-29T17:37:53.400Z,95570.19
2023-12-29T17:43:01.211Z,95576.03
2023-12-29T17:48:08.957Z,95576.53
2023-12-29T17:53:13.101Z,95569.03
2023-12-29T17:58:20.961Z,95571.41
2023-12-29T18:03:23.997Z,95569.19
2023-12-29T18:08:27.146Z,95573.97
2023-12-29T18:13:32.938Z,95581.66
2023-12-29T18:18:35.793Z,95575.72
2023-12-29T18:23:38.624Z,95571.94
2023-12-29T18:28:46.396Z,95575.38
2023-12-29T18:33:54.975Z,95571.41
2023-12-29T18:38:58.307Z,95563.44
2023-12-29T18:44:04.138Z,95559.34
2023-12-29T18:49:14.828Z,95566.50
2023-12-29T18:54:20.475Z,95563.66
2023-12-29T18:59:25.891Z,95565.03
2023-12-29T19:04:38.257Z,95565.38
2023-12-29T19:09:44.041Z,95550.19
2023-12-29T19:14:54.722Z,95560.03
2023-12-29T19:19:58.914Z,95568.59
2023-12-29T19:25:06.375Z,95562.97
2023-12-29T19:30:11.974Z,95553.34
2023-12-29T19:35:16.244Z,95554.69
2023-12-29T19:40:27.444Z,95551.47
2023-12-29T19:45:34.441Z,95550.75
2023-12-29T19:50:40.246Z,95549.47
2023-12-29T19:55:44.383Z,95548.72
2023-12-29T20:06:04.682Z,95553.34
2023-12-29T20:11:07.885Z,95544.81
2023-12-29T20:16:11.257Z,95556.34
2023-12-29T20:21:16.327Z,95554.78
2023-12-29T20:26:20.511Z,95556.91
2023-12-29T20:31:26.076Z,95556.13
2023-12-29T20:36:30.042Z,95563.31
2023-12-29T20:41:36.681Z,95550.75
2023-12-29T20:46:46.079Z,95558.22
2023-12-29T20:51:55.121Z,95562.28
2023-12-29T20:56:58.074Z,95559.59
2023-12-29T21:02:06.301Z,95550.19
2023-12-29T21:07:11.560Z,95565.50
2023-12-29T21:12:16.793Z,95564.47
2023-12-29T21:17:20.830Z,95562.31
2023-12-29T21:22:28.166Z,95563.38
2023-12-29T21:27:32.438Z,95577.78
2023-12-29T21:32:41.663Z,95571.38
2023-12-29T21:37:49.761Z,95568.66
2023-12-29T21:42:57.213Z,95570.28
2023-12-29T21:48:02.089Z,95574.84
2023-12-29T21:53:08.522Z,95576.69
2023-12-29T21:58:24.255Z,95584.16
2023-12-29T22:03:32.053Z,95590.56
2023-12-29T22:08:41.439Z,95596.97
2023-12-29T22:13:44.906Z,95593.22
2023-12-29T22:18:54.078Z,95597.75
2023-12-29T22:23:58.427Z,95599.88
2023-12-29T22:34:21.602Z,95590.81
2023-12-29T22:39:27.550Z,95586.75
2023-12-29T22:44:31.989Z,95593.75
2023-12-29T22:49:35.562Z,95588.66
2023-12-29T22:54:38.587Z,95584.66
2023-12-29T22:59:43.167Z,95584.69
2023-12-29T23:04:46.740Z,95582.63
2023-12-29T23:09:50.791Z,95573.78
2023-12-29T23:14:54.600Z,95578.56
2023-12-29T23:19:58.106Z,95579.31
2023-12-29T23:25:07.013Z,95588.41
2023-12-29T23:30:13.640Z,95578.03
2023-12-29T23:35:23.466Z,95578.03
2023-12-29T23:40:28.829Z,95572.94
2023-12-29T23:45:31.949Z,95582.03
2023-12-29T23:50:36.553Z,95575.13
2023-12-29T23:55:40.774Z,95562.56
